Owls Head, New York
Current Conditions -  °F | °C
As of 2:15 AM on Saturday 25 Oct 2014 (Local Time) from KSLK Reporting Station
Haze Haze  
Wind Chill: 31°   Ceiling: 9500
Heat Index: 35°   Visibility: 1mi
Dew Point: 35°   Wind: 5mph
Humidity: 100%   Direction: 200°SSW
Pressure: 29.8"   Gusts: NA
Location:  44.73°N, 74.17°W
Report Text: KSLK 250615Z AUTO 20004KT 1SM BR FEW006 BKN095 02/02 A2980 RMK AO2 T00170017
Loading
Personal Weather Stations






























Interactive Weather Map
Tropical Storm Tracking
New forecast layout! Learn more

10-Day Weather Forecast

Advertisements
Track Severe Weather on mobile